createdAt,value
2022-09-12T00:20:30.227Z,16.60
2022-09-12T00:22:57.264Z,16.00
2022-09-12T00:25:23.256Z,16.10
2022-09-12T00:27:50.032Z,16.40
2022-09-12T00:30:16.064Z,15.90
2022-09-12T00:32:42.068Z,16.10
2022-09-12T00:35:09.018Z,15.70
2022-09-12T00:37:35.052Z,15.90
2022-09-12T00:40:01.142Z,15.70
2022-09-12T00:42:27.923Z,15.80
2022-09-12T00:44:53.977Z,15.80
2022-09-12T00:47:20.002Z,16.00
2022-09-12T00:49:46.893Z,15.50
2022-09-12T00:52:13.098Z,14.90
2022-09-12T00:54:39.104Z,15.20
2022-09-12T00:57:05.133Z,15.50
2022-09-12T00:59:32.241Z,15.80
2022-09-12T01:01:58.404Z,15.80
2022-09-12T01:04:25.435Z,15.70
2022-09-12T01:06:51.507Z,15.70
2022-09-12T01:09:17.580Z,15.30
2022-09-12T01:11:43.589Z,15.50
2022-09-12T01:14:09.689Z,15.40
2022-09-12T01:16:36.542Z,15.40
2022-09-12T01:19:03.165Z,15.30
2022-09-12T01:21:29.234Z,15.40
2022-09-12T01:23:55.319Z,15.60
2022-09-12T01:26:22.257Z,15.50
2022-09-12T01:28:49.158Z,15.60
2022-09-12T01:31:16.049Z,15.60
2022-09-12T01:33:42.752Z,15.70
2022-09-12T01:36:08.859Z,15.60
2022-09-12T01:38:35.615Z,15.50
2022-09-12T01:41:01.629Z,15.50
2022-09-12T01:43:27.696Z,15.50
2022-09-12T01:45:54.715Z,15.70
2022-09-12T01:48:21.617Z,15.80
2022-09-12T01:50:48.520Z,15.80
2022-09-12T01:53:15.325Z,15.60
2022-09-12T01:55:41.413Z,15.70
2022-09-12T01:58:07.457Z,15.70
2022-09-12T02:00:35.155Z,15.70
2022-09-12T02:03:01.707Z,15.50
2022-09-12T02:05:28.104Z,15.50
2022-09-12T02:07:55.010Z,15.50
2022-09-12T02:10:21.037Z,15.50
2022-09-12T02:12:47.095Z,15.60
2022-09-12T02:15:14.087Z,15.60
2022-09-12T02:17:42.246Z,15.60
2022-09-12T02:20:08.306Z,15.50
2022-09-12T02:22:34.391Z,15.50
2022-09-12T02:25:00.397Z,15.50
2022-09-12T02:27:27.360Z,15.60
2022-09-12T02:29:53.419Z,15.60
2022-09-12T02:32:19.441Z,15.30
2022-09-12T02:34:46.237Z,15.50
2022-09-12T02:37:12.316Z,15.60
2022-09-12T02:39:41.095Z,15.60
2022-09-12T02:42:10.476Z,15.60
2022-09-12T02:44:37.573Z,15.30
2022-09-12T02:47:03.711Z,15.30
2022-09-12T02:49:29.914Z,15.40
2022-09-12T02:51:56.803Z,15.30
2022-09-12T02:54:23.010Z,15.40
2022-09-12T02:56:49.012Z,15.50
2022-09-12T02:59:17.843Z,15.50
2022-09-12T03:01:44.071Z,15.60
2022-09-12T03:04:10.170Z,15.30
2022-09-12T03:06:37.356Z,15.30
2022-09-12T03:09:03.480Z,15.50
2022-09-12T03:14:10.817Z,15.60
2022-09-12T05:23:59.736Z,15.80
2022-09-12T05:26:26.239Z,16.60
2022-09-12T05:28:52.221Z,16.60
2022-09-12T05:31:18.168Z,16.70
2022-09-12T05:33:44.876Z,16.80
2022-09-12T05:36:10.830Z,16.80
2022-09-12T05:38:36.797Z,16.30
2022-09-12T05:41:02.740Z,16.50
2022-09-12T05:43:28.683Z,16.70
2022-09-12T05:45:54.639Z,16.80
2022-09-12T05:48:20.611Z,17.00
2022-09-12T05:50:47.261Z,17.20
2022-09-12T05:53:13.269Z,17.20
2022-09-12T05:55:39.227Z,17.20
2022-09-12T05:58:06.043Z,17.30
2022-09-12T06:00:33.612Z,17.40
2022-09-12T06:02:59.697Z,17.60
2022-09-12T06:08:10.685Z,17.70
2022-09-12T06:10:36.698Z,17.80
2022-09-12T06:13:02.624Z,17.50
2022-09-12T06:15:28.629Z,17.70
2022-09-12T06:17:54.570Z,17.90
2022-09-12T06:20:20.559Z,18.10
2022-09-12T06:22:47.396Z,17.80
2022-09-12T06:25:13.334Z,17.90
2022-09-12T06:27:39.292Z,18.10
2022-09-12T06:30:05.977Z,18.20
2022-09-12T06:32:31.942Z,18.20
2022-09-12T06:34:57.875Z,18.30
2022-09-12T06:37:24.748Z,18.40
2022-09-12T06:39:50.723Z,18.20
2022-09-12T06:42:16.711Z,18.40
2022-09-12T06:44:42.634Z,18.30
2022-09-12T06:47:08.584Z,18.50
2022-09-12T06:49:34.590Z,18.50
2022-09-12T06:52:00.523Z,18.50
2022-09-12T06:54:26.825Z,18.70
2022-09-12T06:56:52.800Z,18.90
2022-09-12T06:59:18.778Z,19.20
2022-09-12T07:01:45.673Z,19.10
2022-09-12T07:04:11.720Z,19.20
2022-09-12T07:06:37.912Z,19.20
2022-09-12T07:09:03.897Z,19.30
2022-09-12T07:11:30.549Z,19.40
2022-09-12T07:13:56.525Z,19.50
2022-09-12T07:16:22.521Z,19.70
2022-09-12T07:18:48.527Z,19.70
2022-09-12T07:21:14.484Z,19.80
2022-09-12T07:23:40.442Z,19.80
2022-09-12T07:26:06.453Z,20.10
2022-09-12T07:28:33.114Z,19.50
2022-09-12T07:30:59.487Z,19.70
2022-09-12T07:33:27.104Z,19.10
2022-09-12T07:35:53.375Z,18.80
2022-09-12T07:38:19.695Z,18.70
2022-09-12T07:40:47.145Z,18.70
2022-09-12T07:43:13.258Z,18.90
2022-09-12T09:23:28.591Z,22.50
2022-09-12T09:25:54.610Z,22.70
2022-09-12T09:28:20.546Z,23.00
2022-09-12T09:30:46.568Z,23.10
2022-09-12T09:33:12.545Z,22.90
2022-09-12T09:35:39.262Z,22.80
2022-09-12T09:38:05.239Z,22.60
2022-09-12T09:40:31.248Z,22.60
2022-09-12T09:42:57.209Z,22.80
2022-09-12T09:45:23.807Z,22.90
2022-09-12T09:47:49.774Z,22.80
2022-09-12T09:50:15.725Z,22.80
2022-09-12T09:52:41.661Z,23.10
2022-09-12T09:55:07.627Z,23.20
2022-09-12T09:57:33.565Z,23.40
2022-09-12T09:59:59.555Z,23.50
2022-09-12T10:02:26.338Z,23.40
2022-09-12T10:04:52.278Z,23.90
2022-09-12T10:07:18.240Z,24.20
2022-09-12T10:09:44.799Z,24.20
2022-09-12T10:12:10.820Z,23.70
2022-09-12T10:14:36.793Z,23.40
2022-09-12T10:17:03.519Z,23.60
2022-09-12T10:19:29.508Z,23.90
2022-09-12T10:21:55.458Z,24.30
2022-09-12T10:24:21.411Z,24.30
2022-09-12T10:26:47.475Z,24.50
2022-09-12T10:29:13.474Z,24.30
2022-09-12T10:31:39.408Z,24.50
2022-09-12T10:34:05.383Z,24.40
2022-09-12T10:36:32.178Z,24.40
2022-09-12T10:38:58.109Z,24.60
2022-09-12T10:41:24.974Z,24.70
2022-09-12T10:43:50.912Z,24.80
2022-09-12T10:46:16.918Z,25.00
2022-09-12T10:48:42.890Z,25.20
2022-09-12T10:51:09.065Z,25.50
2022-09-12T10:53:35.798Z,25.20
2022-09-12T10:56:01.789Z,25.30
2022-09-12T10:58:27.760Z,25.20
2022-09-12T11:00:54.480Z,25.40
2022-09-12T11:03:20.508Z,25.70
2022-09-12T11:05:46.455Z,25.50
2022-09-12T11:08:13.244Z,25.30
2022-09-12T11:10:43.772Z,25.10
2022-09-12T11:13:10.861Z,24.90
2022-09-12T11:15:36.871Z,24.80
2022-09-12T11:18:02.852Z,25.70
2022-09-12T11:20:28.916Z,26.20
2022-09-12T11:22:54.866Z,26.30
2022-09-12T11:25:21.027Z,26.30
2022-09-12T11:27:47.087Z,26.70
2022-09-12T11:30:13.130Z,26.40
2022-09-12T11:32:39.175Z,27.00
2022-09-12T11:35:05.183Z,26.50
2022-09-12T11:37:31.929Z,26.50
2022-09-12T11:39:57.903Z,26.40
2022-09-12T11:42:23.912Z,25.60
2022-09-12T11:44:50.746Z,26.00
2022-09-12T11:47:16.723Z,25.70
2022-09-12T11:49:42.791Z,26.60
2022-09-12T11:52:08.823Z,27.30
2022-09-12T11:54:35.441Z,27.30
2022-09-12T11:57:01.489Z,27.30
2022-09-12T11:59:27.422Z,27.00
2022-09-12T12:01:53.856Z,27.10
2022-09-12T12:04:20.149Z,27.40
2022-09-12T12:06:46.577Z,27.80
2022-09-12T12:09:13.010Z,27.30
2022-09-12T12:11:40.045Z,27.90
2022-09-12T12:16:47.830Z,28.10
2022-09-12T14:29:13.247Z,27.20
2022-09-12T14:31:39.860Z,27.10
2022-09-12T14:34:06.811Z,27.30
2022-09-12T14:36:33.079Z,26.80
2022-09-12T14:38:59.056Z,26.70
2022-09-12T14:41:25.010Z,26.90
2022-09-12T14:43:51.601Z,27.20
2022-09-12T14:46:17.561Z,27.10
2022-09-12T14:48:44.188Z,27.30
2022-09-12T14:51:10.276Z,27.30
2022-09-12T14:53:36.290Z,26.80
2022-09-12T14:56:03.233Z,27.10
2022-09-12T14:58:29.158Z,26.80
2022-09-12T15:00:55.113Z,26.80
2022-09-12T15:03:21.091Z,27.20
2022-09-12T15:05:47.019Z,27.30
2022-09-12T15:08:13.915Z,26.90
2022-09-12T15:10:41.889Z,27.20
2022-09-12T15:13:07.838Z,26.40
2022-09-12T15:15:33.849Z,26.30
2022-09-12T15:18:02.378Z,26.70
2022-09-12T15:20:31.821Z,27.00
2022-09-12T15:22:57.761Z,27.10
2022-09-12T15:25:23.710Z,26.90
2022-09-12T15:27:50.639Z,27.00
2022-09-12T15:30:16.607Z,26.60
2022-09-12T15:32:42.614Z,25.80
2022-09-12T15:35:09.275Z,26.00
2022-09-12T15:37:35.555Z,25.90
2022-09-12T15:40:01.679Z,25.70
2022-09-12T15:42:28.493Z,25.60
2022-09-12T15:44:54.423Z,25.90
2022-09-12T15:47:21.192Z,25.90
2022-09-12T15:49:48.089Z,25.80
2022-09-12T15:52:14.036Z,25.80
2022-09-12T15:54:40.002Z,25.90
2022-09-12T15:57:06.654Z,25.90
2022-09-12T15:59:32.877Z,25.90
2022-09-12T16:01:58.876Z,26.00
2022-09-12T16:04:24.846Z,26.00
2022-09-12T16:06:50.854Z,25.90
2022-09-12T16:09:16.950Z,26.10
2022-09-12T16:11:43.798Z,26.10
2022-09-12T16:14:09.806Z,25.90
2022-09-12T16:16:36.267Z,25.40
2022-09-12T16:19:02.204Z,25.10
2022-09-12T16:21:28.186Z,24.80
2022-09-12T16:23:54.156Z,24.70
2022-09-12T16:26:20.169Z,24.90
2022-09-12T16:28:46.578Z,25.20
2022-09-12T16:31:13.613Z,25.30
2022-09-12T16:33:41.623Z,25.30
2022-09-12T16:36:07.570Z,25.40
2022-09-12T16:38:34.404Z,25.40
2022-09-12T16:41:00.370Z,25.40
2022-09-12T16:43:26.299Z,25.10
2022-09-12T16:45:52.309Z,24.60
2022-09-12T16:48:18.703Z,24.40
2022-09-12T16:50:45.528Z,24.40
2022-09-12T16:53:11.509Z,24.40
2022-09-12T16:55:37.448Z,24.30
2022-09-12T16:58:04.310Z,24.30
2022-09-12T17:00:30.292Z,24.20
2022-09-12T17:02:56.301Z,24.40
2022-09-12T17:05:22.281Z,24.40
2022-09-12T17:07:48.575Z,24.40
2022-09-12T17:10:14.835Z,24.10
2022-09-12T17:12:42.389Z,24.10
2022-09-12T17:15:08.666Z,23.90
2022-09-12T17:17:34.966Z,24.00
2022-09-12T17:20:01.133Z,23.80
2022-09-12T17:22:27.366Z,23.80
2022-09-12T19:14:08.662Z,21.30
2022-09-12T19:16:34.586Z,21.40
2022-09-12T19:19:01.300Z,21.20
2022-09-12T19:21:27.322Z,21.20
2022-09-12T19:23:53.296Z,21.00
2022-09-12T19:26:19.821Z,20.90
2022-09-12T19:28:45.844Z,21.10
2022-09-12T19:31:11.817Z,21.00
2022-09-12T19:33:37.826Z,21.10
2022-09-12T19:36:03.809Z,20.70
2022-09-12T19:38:30.264Z,20.40
2022-09-12T19:40:56.434Z,20.70
2022-09-12T19:43:22.375Z,20.90
2022-09-12T19:45:49.007Z,21.00
2022-09-12T19:48:15.022Z,20.60
2022-09-12T19:50:40.971Z,20.10
2022-09-12T19:53:06.912Z,20.40
2022-09-12T19:55:33.543Z,20.60
2022-09-12T19:57:59.489Z,20.30
2022-09-12T20:00:25.466Z,20.50
2022-09-12T20:02:52.325Z,20.40
2022-09-12T20:05:18.318Z,20.00
2022-09-12T20:07:44.255Z,20.30
2022-09-12T20:10:11.029Z,20.50
2022-09-12T20:12:36.985Z,20.30
2022-09-12T20:15:02.949Z,20.00
2022-09-12T20:17:29.634Z,20.30
2022-09-12T20:19:55.561Z,20.30
2022-09-12T20:22:21.515Z,19.90
2022-09-12T20:24:48.240Z,20.10
2022-09-12T20:27:14.385Z,20.20
2022-09-12T20:29:40.327Z,20.30
2022-09-12T20:32:06.274Z,20.30
2022-09-12T20:34:32.242Z,20.30
2022-09-12T20:36:58.834Z,20.20
2022-09-12T20:39:24.794Z,19.90
2022-09-12T20:41:51.504Z,19.80
2022-09-12T20:44:17.487Z,19.90
2022-09-12T20:46:43.484Z,19.90
2022-09-12T20:49:09.526Z,19.90
2022-09-12T20:51:35.499Z,19.90
2022-09-12T20:54:02.107Z,19.70
2022-09-12T20:56:28.134Z,19.00
2022-09-12T20:58:54.124Z,19.00
2022-09-12T21:01:20.304Z,19.10
2022-09-12T21:03:46.393Z,19.00
2022-09-12T21:06:12.409Z,19.20
2022-09-12T21:08:39.120Z,19.20
2022-09-12T21:11:05.092Z,19.40
2022-09-12T21:13:31.080Z,19.40
2022-09-12T21:15:57.803Z,19.50
2022-09-12T21:18:23.964Z,19.50
2022-09-12T21:20:49.925Z,19.30
2022-09-12T21:23:15.899Z,18.70
2022-09-12T21:25:51.922Z,18.40
2022-09-12T21:28:18.293Z,18.30
2022-09-12T21:30:44.252Z,18.60
2022-09-12T21:33:10.897Z,18.60
2022-09-12T21:35:36.891Z,18.60
2022-09-12T21:38:02.819Z,18.50
2022-09-12T21:40:29.519Z,18.20
2022-09-12T21:42:55.516Z,18.40
2022-09-12T21:45:21.459Z,18.40
2022-09-12T21:47:47.416Z,18.10
2022-09-12T21:50:13.664Z,18.20
2022-09-12T21:52:41.356Z,18.20
2022-09-12T21:55:07.571Z,18.30
2022-09-12T21:57:33.844Z,18.10
2022-09-12T22:00:00.092Z,18.20
2022-09-12T22:02:26.465Z,18.40
2022-09-12T22:04:52.728Z,18.40
2022-09-12T22:07:19.898Z,18.40
